Time;durP1;ratioP1;P1;durP2;ratioP2;P2;SDS_P1;SDS_P2;PMS_P1;PMS_P2;Temp;Humidity;BMP_temperature;BMP_pressure;BME280_temperature;BME280_humidity;BME280_pressure;Samples;Min_cycle;Max_cycle;Signal;HPM_P1;HPM_P2
2023/06/26 00:00:20;;;;;;;10.43;9.47;;;23.10;88.00;;;;;;5032926;28;20692;-70
2023/06/26 00:02:46;;;;;;;9.37;8.47;;;23.10;88.30;;;;;;5032922;28;20464;-70
2023/06/26 00:05:11;;;;;;;10.47;9.37;;;23.10;88.80;;;;;;5033032;28;20202;-70
2023/06/26 00:07:37;;;;;;;10.57;9.67;;;23.20;89.30;;;;;;5033075;28;20182;-70
2023/06/26 00:10:03;;;;;;;8.47;7.70;;;23.00;89.30;;;;;;5032460;28;20191;-69
2023/06/26 00:12:30;;;;;;;8.73;7.93;;;23.00;90.00;;;;;;5032992;28;20172;-70
2023/06/26 00:14:56;;;;;;;9.10;8.30;;;22.90;90.10;;;;;;5032850;28;20414;-70
2023/06/26 00:17:22;;;;;;;10.50;9.40;;;22.90;90.20;;;;;;5033177;28;20413;-70
2023/06/26 00:19:48;;;;;;;10.43;8.97;;;22.90;90.40;;;;;;5033552;28;20422;-70
2023/06/26 00:22:13;;;;;;;9.67;8.87;;;22.90;90.70;;;;;;5050517;28;20205;-70
2023/06/26 00:24:39;;;;;;;10.60;9.60;;;22.90;90.60;;;;;;5050659;28;20629;-70
2023/06/26 00:27:05;;;;;;;10.27;9.27;;;22.90;91.00;;;;;;5052759;28;20523;-70
2023/06/26 00:29:30;;;;;;;9.73;8.73;;;22.80;91.30;;;;;;5052686;28;20199;-70
2023/06/26 00:31:56;;;;;;;10.00;9.00;;;22.80;91.40;;;;;;5052544;28;20569;-70
2023/06/26 00:34:21;;;;;;;9.20;8.20;;;22.70;91.80;;;;;;5052557;28;20695;-70
2023/06/26 00:36:47;;;;;;;10.37;9.33;;;22.70;92.10;;;;;;5052225;28;20536;-69
2023/06/26 00:39:13;;;;;;;10.70;9.70;;;22.60;92.40;;;;;;5052876;28;20191;-70
2023/06/26 00:41:39;;;;;;;9.80;8.90;;;22.50;92.70;;;;;;5034055;28;20672;-70
2023/06/26 00:44:05;;;;;;;11.03;9.93;;;22.40;92.80;;;;;;5052266;28;20401;-70
2023/06/26 00:46:31;;;;;;;8.93;8.13;;;22.40;93.00;;;;;;5052205;28;20170;-69
2023/06/26 00:48:59;;;;;;;9.30;8.40;;;22.40;93.30;;;;;;5052037;28;20779;-70
2023/06/26 00:51:27;;;;;;;9.80;8.90;;;22.40;93.30;;;;;;5059144;28;20430;-69
2023/06/26 00:53:53;;;;;;;9.30;8.50;;;22.40;93.40;;;;;;5072317;28;20400;-70
2023/06/26 00:56:19;;;;;;;9.37;8.57;;;22.30;93.50;;;;;;5071855;28;20403;-70
2023/06/26 00:58:45;;;;;;;9.40;8.40;;;22.40;93.50;;;;;;5072337;28;20404;-69
2023/06/26 01:01:16;;;;;;;9.60;8.70;;;22.40;93.60;;;;;;5071924;28;20392;-70
2023/06/26 01:03:46;;;;;;;7.83;7.10;;;22.40;93.80;;;;;;5072329;28;20601;-70
2023/06/26 01:06:14;;;;;;;10.13;9.13;;;22.40;93.80;;;;;;5075603;28;20392;-70
2023/06/26 01:08:41;;;;;;;9.47;8.50;;;22.30;94.10;;;;;;5076034;28;20392;-70
2023/06/26 01:11:07;;;;;;;9.13;8.17;;;22.20;94.30;;;;;;5075140;28;20452;-70
2023/06/26 01:13:34;;;;;;;9.97;8.93;;;22.10;94.50;;;;;;5075429;28;20439;-70
2023/06/26 01:16:00;;;;;;;9.30;8.37;;;22.00;94.60;;;;;;5075479;28;20812;-70
2023/06/26 01:18:26;;;;;;;9.60;8.60;;;22.10;94.90;;;;;;5075391;28;20911;-70
2023/06/26 01:20:52;;;;;;;9.93;8.93;;;22.10;95.00;;;;;;5074895;28;20926;-70
2023/06/26 01:23:31;;;;;;;9.10;8.20;;;22.10;95.10;;;;;;5074992;28;21005;-70
2023/06/26 01:26:15;;;;;;;9.87;8.97;;;22.10;95.20;;;;;;5075093;28;20372;-70
2023/06/26 01:28:42;;;;;;;9.27;8.37;;;22.10;95.20;;;;;;5075052;28;20769;-70
2023/06/26 01:31:09;;;;;;;9.00;8.10;;;22.20;95.30;;;;;;5057017;28;20513;-69
2023/06/26 01:33:36;;;;;;;9.20;8.40;;;22.10;95.50;;;;;;5075453;28;20760;-70
2023/06/26 01:36:02;;;;;;;10.37;9.47;;;22.20;95.50;;;;;;5075064;28;20507;-70
2023/06/26 01:38:28;;;;;;;9.07;8.23;;;22.10;95.50;;;;;;5075099;28;20451;-70
2023/06/26 01:40:54;;;;;;;9.50;8.33;;;22.10;95.90;;;;;;5074540;28;20957;-70
2023/06/26 01:43:43;;;;;;;10.03;8.70;;;22.00;95.90;;;;;;5074689;28;20237;-69
2023/06/26 01:46:21;;;;;;;9.67;8.63;;;21.90;96.20;;;;;;5071621;28;20150;-70
2023/06/26 01:49:15;;;;;;;10.70;9.60;;;22.00;96.30;;;;;;5053833;28;20397;-70
2023/06/26 01:52:09;;;;;;;8.30;7.60;;;21.90;96.40;;;;;;5063330;28;20487;-70
2023/06/26 01:54:48;;;;;;;12.53;9.17;;;21.90;96.40;;;;;;5074485;28;20439;-69
2023/06/26 01:57:15;;;;;;;9.30;8.40;;;21.90;96.60;;;;;;5074739;28;20749;-70
2023/06/26 01:59:42;;;;;;;9.07;8.20;;;21.80;96.70;;;;;;5074535;28;20938;-70
2023/06/26 02:02:08;;;;;;;9.87;8.87;;;21.80;96.80;;;;;;5074677;28;20451;-69
2023/06/26 02:04:34;;;;;;;9.33;8.33;;;21.80;97.10;;;;;;5075235;28;20400;-70
2023/06/26 02:06:59;;;;;;;10.10;9.10;;;21.90;97.10;;;;;;5056483;28;20173;-70
2023/06/26 02:09:25;;;;;;;9.70;8.80;;;21.90;97.00;;;;;;5074781;28;20186;-70
2023/06/26 02:11:51;;;;;;;8.60;7.80;;;21.80;97.30;;;;;;5074328;28;20162;-70
2023/06/26 02:14:16;;;;;;;10.20;9.20;;;21.80;97.60;;;;;;5056649;28;20416;-70
2023/06/26 02:16:42;;;;;;;9.40;8.30;;;21.80;97.50;;;;;;5073530;28;20162;-70
2023/06/26 02:19:08;;;;;;;9.90;8.90;;;21.70;97.70;;;;;;5060485;28;20198;-70
2023/06/26 02:21:35;;;;;;;9.43;8.53;;;21.60;97.90;;;;;;5063069;28;20197;-70
2023/06/26 02:24:01;;;;;;;11.47;8.70;;;21.50;98.10;;;;;;5074455;28;20165;-69
2023/06/26 02:26:27;;;;;;;10.43;9.33;;;21.50;98.20;;;;;;5061410;28;20433;-69
2023/06/26 02:28:53;;;;;;;8.53;7.73;;;21.30;98.70;;;;;;5054745;28;20176;-69
2023/06/26 02:31:19;;;;;;;10.40;9.07;;;21.40;98.70;;;;;;5054868;28;20750;-70
2023/06/26 02:33:45;;;;;;;9.50;8.60;;;21.40;98.90;;;;;;5054850;28;20249;-70
2023/06/26 02:36:10;;;;;;;10.40;9.50;;;21.30;98.90;;;;;;5054452;28;20213;-69
2023/06/26 02:38:36;;;;;;;9.43;8.50;;;21.20;99.20;;;;;;5054614;28;20401;-69
2023/06/26 02:41:02;;;;;;;10.37;9.37;;;21.20;99.40;;;;;;5054350;28;20183;-70
2023/06/26 02:43:27;;;;;;;9.13;8.23;;;21.30;99.40;;;;;;5054608;28;20210;-70
2023/06/26 02:45:53;;;;;;;9.47;8.57;;;21.30;99.50;;;;;;5054711;28;20592;-70
2023/06/26 02:48:18;;;;;;;8.53;7.73;;;21.30;99.40;;;;;;5054912;28;20606;-71
2023/06/26 02:50:46;;;;;;;9.87;8.97;;;21.30;99.60;;;;;;5055614;28;20577;-71
2023/06/26 02:53:12;;;;;;;8.63;7.90;;;21.20;99.60;;;;;;5074449;28;20301;-71
2023/06/26 02:55:38;;;;;;;9.00;8.20;;;21.20;99.90;;;;;;5074371;28;20484;-71
2023/06/26 02:58:03;;;;;;;8.93;8.03;;;21.30;99.70;;;;;;5074915;28;20514;-71
2023/06/26 03:00:29;;;;;;;8.77;7.97;;;21.20;99.70;;;;;;5074898;28;20247;-71
2023/06/26 03:02:55;;;;;;;9.60;8.70;;;21.30;99.90;;;;;;5074065;28;20280;-71
2023/06/26 03:05:21;;;;;;;9.20;8.30;;;21.30;99.90;;;;;;5074363;28;20435;-71
2023/06/26 03:07:46;;;;;;;9.70;8.50;;;21.30;99.90;;;;;;5073928;28;20187;-70
2023/06/26 03:10:12;;;;;;;8.90;8.10;;;21.30;99.90;;;;;;5073196;28;20192;-71
2023/06/26 03:12:38;;;;;;;8.20;7.50;;;21.30;99.90;;;;;;5073494;28;20567;-71
2023/06/26 03:15:03;;;;;;;9.33;8.40;;;21.30;99.90;;;;;;5073240;28;20189;-70
2023/06/26 03:17:29;;;;;;;8.80;8.00;;;21.30;99.90;;;;;;5073801;28;20537;-71
2023/06/26 03:19:54;;;;;;;9.27;7.83;;;21.40;99.90;;;;;;5073264;28;20694;-70
2023/06/26 03:22:20;;;;;;;9.37;8.27;;;21.40;99.90;;;;;;5073022;28;20198;-70
2023/06/26 03:24:45;;;;;;;8.83;8.03;;;21.40;99.90;;;;;;5073210;28;20676;-71
2023/06/26 03:27:11;;;;;;;8.70;7.80;;;21.30;99.90;;;;;;5072725;28;20169;-71
2023/06/26 03:29:37;;;;;;;8.13;7.33;;;21.30;99.90;;;;;;5073162;28;20269;-70
2023/06/26 03:32:03;;;;;;;9.00;8.10;;;21.40;99.90;;;;;;5072865;28;20166;-70
2023/06/26 03:34:28;;;;;;;9.33;8.43;;;21.30;99.90;;;;;;5072936;28;20170;-70
2023/06/26 03:36:54;;;;;;;9.07;8.27;;;21.30;99.90;;;;;;5072714;28;20694;-70
2023/06/26 03:39:19;;;;;;;8.43;7.60;;;21.20;99.90;;;;;;5072952;28;20215;-71
2023/06/26 03:41:45;;;;;;;8.50;7.70;;;21.30;99.90;;;;;;5072471;28;20189;-70
2023/06/26 03:44:11;;;;;;;9.50;8.60;;;21.30;99.90;;;;;;5073054;28;20178;-71
2023/06/26 03:46:37;;;;;;;8.67;7.97;;;21.30;99.90;;;;;;5057029;28;20577;-70
2023/06/26 03:49:03;;;;;;;8.53;7.73;;;21.30;99.90;;;;;;5032686;28;20398;-70
2023/06/26 03:51:28;;;;;;;9.50;8.60;;;21.20;99.90;;;;;;5048176;28;20166;-70
2023/06/26 03:53:54;;;;;;;8.50;7.60;;;21.20;99.90;;;;;;5072552;28;20210;-71
2023/06/26 03:56:20;;;;;;;9.50;8.40;;;21.20;99.90;;;;;;5054388;28;20166;-72
2023/06/26 03:58:45;;;;;;;10.07;9.07;;;21.30;99.90;;;;;;5072632;28;20166;-70
2023/06/26 04:01:11;;;;;;;8.40;7.60;;;21.30;99.90;;;;;;5072484;28;20259;-70
2023/06/26 04:03:36;;;;;;;8.43;7.63;;;21.20;99.90;;;;;;5072584;28;20576;-71
2023/06/26 04:06:02;;;;;;;8.10;7.40;;;21.30;99.90;;;;;;5054462;28;20516;-70
2023/06/26 04:08:27;;;;;;;8.47;7.70;;;21.40;99.90;;;;;;5072609;28;20169;-71
2023/06/26 04:10:55;;;;;;;8.97;8.07;;;21.40;99.90;;;;;;5071201;28;20276;-71
2023/06/26 04:13:20;;;;;;;8.53;7.63;;;21.50;99.90;;;;;;5072636;28;20172;-71
2023/06/26 04:15:46;;;;;;;8.17;7.37;;;21.50;99.90;;;;;;5072988;28;20962;-70
2023/06/26 04:18:12;;;;;;;11.33;7.43;;;21.60;99.90;;;;;;5062302;28;20170;-70
2023/06/26 04:21:02;;;;;;;8.30;7.50;;;21.50;99.90;;;;;;5052625;28;20218;-70
2023/06/26 04:23:27;;;;;;;8.00;7.30;;;21.60;99.90;;;;;;5052186;28;20547;-70
2023/06/26 04:25:53;;;;;;;8.80;8.00;;;21.60;99.90;;;;;;5052057;28;20444;-71
2023/06/26 04:28:18;;;;;;;9.00;8.10;;;21.50;99.90;;;;;;5050544;28;20178;-70
2023/06/26 04:30:44;;;;;;;8.73;7.93;;;21.50;99.90;;;;;;5052420;28;20732;-70
2023/06/26 04:33:11;;;;;;;9.50;6.87;;;21.50;99.90;;;;;;5052410;28;20173;-71
2023/06/26 04:35:37;;;;;;;7.93;7.23;;;21.60;99.90;;;;;;5052189;28;20245;-71
2023/06/26 04:38:02;;;;;;;9.17;8.27;;;21.50;99.90;;;;;;5051935;28;20489;-70
2023/06/26 04:40:28;;;;;;;9.10;8.13;;;21.60;99.90;;;;;;5054002;28;20673;-70
2023/06/26 04:42:54;;;;;;;7.90;7.20;;;21.60;99.90;;;;;;5075211;28;20201;-70
2023/06/26 04:45:19;;;;;;;9.33;8.47;;;21.60;99.90;;;;;;5075800;28;20199;-70
2023/06/26 04:47:45;;;;;;;8.60;7.80;;;21.60;99.90;;;;;;5075953;28;20173;-71
2023/06/26 04:50:10;;;;;;;9.00;8.10;;;21.70;99.90;;;;;;5075581;28;20202;-71
2023/06/26 04:52:36;;;;;;;8.53;7.73;;;21.80;99.90;;;;;;5074393;28;20177;-70
2023/06/26 04:55:01;;;;;;;9.43;8.33;;;21.90;99.90;;;;;;5075785;28;20554;-70
2023/06/26 04:57:27;;;;;;;9.97;8.63;;;21.90;99.90;;;;;;5075483;28;20169;-71
2023/06/26 04:59:52;;;;;;;7.73;6.90;;;21.90;99.90;;;;;;5075541;28;20190;-70
2023/06/26 05:02:18;;;;;;;9.07;8.17;;;22.00;99.90;;;;;;5057486;28;20207;-70
2023/06/26 05:04:44;;;;;;;9.20;8.30;;;22.10;99.90;;;;;;5057515;28;20173;-70
2023/06/26 05:07:10;;;;;;;9.47;8.20;;;22.30;99.90;;;;;;5075261;28;20194;-70
2023/06/26 05:09:35;;;;;;;8.70;7.73;;;22.40;99.90;;;;;;5075228;28;21033;-70
2023/06/26 05:12:02;;;;;;;9.37;8.47;;;22.50;99.90;;;;;;5075248;28;20170;-69
2023/06/26 05:14:28;;;;;;;8.60;7.70;;;22.60;99.90;;;;;;5075389;28;20166;-69
2023/06/26 05:16:53;;;;;;;7.90;7.10;;;22.80;99.90;;;;;;5076138;28;20414;-69
2023/06/26 05:19:19;;;;;;;8.23;7.40;;;22.90;99.90;;;;;;5075268;28;20201;-69
2023/06/26 05:21:45;;;;;;;8.23;7.50;;;23.00;99.90;;;;;;5059478;28;20198;-69
2023/06/26 05:24:13;;;;;;;7.90;7.20;;;23.20;99.90;;;;;;5035391;28;20691;-69
2023/06/26 05:26:39;;;;;;;8.30;7.50;;;23.30;99.90;;;;;;5035209;28;20398;-70
2023/06/26 05:29:05;;;;;;;8.70;7.90;;;23.40;99.90;;;;;;5035016;28;20460;-69
2023/06/26 05:31:33;;;;;;;10.17;8.03;;;23.50;99.90;;;;;;5035420;28;20163;-69
2023/06/26 05:34:02;;;;;;;8.20;7.37;;;23.60;99.90;;;;;;5035128;28;20174;-69
2023/06/26 05:36:29;;;;;;;8.37;7.67;;;23.70;99.70;;;;;;5035037;28;20417;-69
2023/06/26 05:38:56;;;;;;;8.20;7.40;;;23.90;99.80;;;;;;5035286;28;20406;-69
2023/06/26 05:41:22;;;;;;;8.30;7.50;;;24.00;99.70;;;;;;5034564;28;20416;-69
2023/06/26 05:43:48;;;;;;;8.30;7.50;;;24.10;99.20;;;;;;5037989;28;20401;-69
2023/06/26 05:46:13;;;;;;;9.10;8.30;;;24.20;98.90;;;;;;5035105;28;20425;-69
2023/06/26 05:48:39;;;;;;;7.50;6.80;;;24.40;98.10;;;;;;5034840;28;20199;-69
2023/06/26 05:51:05;;;;;;;8.57;7.77;;;24.50;98.10;;;;;;5039311;28;20211;-69
2023/06/26 05:53:31;;;;;;;9.07;8.23;;;24.70;98.10;;;;;;5074960;28;20173;-68
2023/06/26 05:55:57;;;;;;;7.90;7.17;;;24.80;97.80;;;;;;5074948;28;20473;-69
2023/06/26 05:58:26;;;;;;;7.93;7.23;;;24.90;97.50;;;;;;5075207;28;20648;-68
2023/06/26 06:00:51;;;;;;;8.07;7.27;;;25.10;97.20;;;;;;5074678;28;20428;-69
2023/06/26 06:03:17;;;;;;;10.67;8.00;;;25.20;97.00;;;;;;5074649;28;20455;-69
2023/06/26 06:05:42;;;;;;;8.20;7.40;;;25.40;96.60;;;;;;5074580;28;20162;-68
2023/06/26 06:08:08;;;;;;;8.73;7.70;;;25.50;96.00;;;;;;5074557;28;20574;-68
2023/06/26 06:10:33;;;;;;;8.10;7.30;;;25.60;96.10;;;;;;5074646;28;20182;-68
2023/06/26 06:12:59;;;;;;;8.37;7.67;;;25.70;96.20;;;;;;5074959;28;20173;-68
2023/06/26 06:15:25;;;;;;;7.60;6.90;;;25.80;96.20;;;;;;5075091;28;20174;-69
2023/06/26 06:17:50;;;;;;;7.77;6.97;;;25.90;96.40;;;;;;5075243;28;20166;-69
2023/06/26 06:20:19;;;;;;;8.53;7.73;;;25.90;96.00;;;;;;5075782;28;20646;-68
2023/06/26 06:22:45;;;;;;;8.90;7.50;;;26.00;95.80;;;;;;5060917;28;20194;-68
2023/06/26 06:25:10;;;;;;;9.90;9.10;;;26.10;95.60;;;;;;5055501;28;20795;-68
2023/06/26 06:27:36;;;;;;;12.60;11.30;;;26.20;95.10;;;;;;5053429;28;20232;-68
2023/06/26 06:30:02;;;;;;;11.83;10.73;;;26.30;94.90;;;;;;5053559;28;20191;-68
2023/06/26 06:32:28;;;;;;;9.90;9.00;;;26.50;94.70;;;;;;5025776;28;20534;-68
2023/06/26 06:34:53;;;;;;;12.57;11.33;;;26.50;94.30;;;;;;5043290;28;20416;-68
2023/06/26 06:37:19;;;;;;;11.40;10.10;;;26.60;94.30;;;;;;5044061;28;20645;-68
2023/06/26 06:39:44;;;;;;;13.70;11.10;;;26.70;94.10;;;;;;5042740;28;20625;-68
2023/06/26 06:42:10;;;;;;;12.00;10.30;;;26.70;94.00;;;;;;5040768;28;20678;-68
2023/06/26 06:44:35;;;;;;;12.37;9.93;;;26.80;94.00;;;;;;5034030;28;20214;-68
2023/06/26 06:47:01;;;;;;;11.13;9.97;;;26.50;94.40;;;;;;5034214;28;20266;-68
2023/06/26 06:49:27;;;;;;;12.73;9.37;;;26.50;94.40;;;;;;5033586;28;20195;-68
2023/06/26 06:51:52;;;;;;;12.13;9.90;;;26.50;94.40;;;;;;5054527;28;20173;-68
2023/06/26 06:54:19;;;;;;;12.30;9.97;;;26.40;94.50;;;;;;5073313;28;20168;-68
2023/06/26 06:56:45;;;;;;;9.63;8.60;;;26.10;95.40;;;;;;5073622;28;20216;-68
2023/06/26 06:59:10;;;;;;;10.03;9.00;;;26.00;95.30;;;;;;5073836;28;20447;-68
2023/06/26 07:01:36;;;;;;;10.30;9.30;;;26.20;95.20;;;;;;5073352;28;20177;-68
2023/06/26 07:04:03;;;;;;;10.13;9.13;;;26.40;94.40;;;;;;5072729;28;20166;-68
2023/06/26 07:06:29;;;;;;;9.47;8.53;;;26.50;94.40;;;;;;5073240;28;20260;-68
2023/06/26 07:08:55;;;;;;;11.43;9.93;;;26.80;94.50;;;;;;5072945;28;20432;-68
2023/06/26 07:11:20;;;;;;;9.90;8.93;;;26.90;93.60;;;;;;5073122;28;20215;-68
2023/06/26 07:13:46;;;;;;;12.73;11.63;;;27.30;93.50;;;;;;5073583;28;20648;-68
2023/06/26 07:16:11;;;;;;;9.57;8.77;;;27.50;93.20;;;;;;5073278;28;20169;-68
2023/06/26 07:18:38;;;;;;;9.63;8.53;;;27.30;92.10;;;;;;5073183;28;20252;-68
2023/06/26 07:21:03;;;;;;;7.57;6.70;;;27.10;93.10;;;;;;5072986;28;20209;-68
2023/06/26 07:23:30;;;;;;;12.63;8.80;;;27.20;92.30;;;;;;5072349;28;20859;-68
2023/06/26 07:25:55;;;;;;;8.70;7.90;;;27.10;92.70;;;;;;5073050;28;20177;-68
2023/06/26 07:28:21;;;;;;;8.60;7.80;;;27.10;91.50;;;;;;5073006;28;20396;-68
2023/06/26 07:30:46;;;;;;;8.03;7.23;;;27.40;91.80;;;;;;5072664;28;20656;-68
2023/06/26 07:33:12;;;;;;;8.43;7.63;;;27.80;91.00;;;;;;5072735;28;20170;-68
2023/06/26 07:35:38;;;;;;;9.20;8.40;;;27.80;90.60;;;;;;5072564;28;20287;-68
2023/06/26 07:38:04;;;;;;;9.20;8.33;;;27.90;89.70;;;;;;5072227;28;20169;-68
2023/06/26 07:40:29;;;;;;;9.10;8.27;;;27.80;90.30;;;;;;5054742;28;20186;-68
2023/06/26 07:42:55;;;;;;;8.40;7.60;;;27.70;90.50;;;;;;5072865;28;20281;-68
2023/06/26 07:45:20;;;;;;;9.17;7.53;;;27.70;89.70;;;;;;5073018;28;20170;-69
2023/06/26 07:47:46;;;;;;;8.93;7.90;;;27.80;89.90;;;;;;5048592;28;20175;-69
2023/06/26 07:50:11;;;;;;;8.70;7.53;;;27.90;89.90;;;;;;5032577;28;20234;-69
2023/06/26 07:52:37;;;;;;;8.13;7.43;;;28.10;88.50;;;;;;5066265;28;20652;-69
2023/06/26 07:55:03;;;;;;;8.00;7.30;;;28.30;87.60;;;;;;5072604;28;20680;-69
2023/06/26 07:57:29;;;;;;;8.57;7.67;;;28.50;89.40;;;;;;5072715;28;20170;-68
2023/06/26 07:59:55;;;;;;;9.33;8.30;;;28.50;88.70;;;;;;5072418;28;20431;-69
2023/06/26 08:02:21;;;;;;;8.20;7.40;;;28.80;87.70;;;;;;5072327;28;20928;-68
2023/06/26 08:04:47;;;;;;;8.07;6.80;;;28.90;88.40;;;;;;5072743;28;20403;-69
2023/06/26 08:07:13;;;;;;;8.83;7.17;;;29.00;85.30;;;;;;5055590;28;20783;-68
2023/06/26 08:09:39;;;;;;;7.63;6.93;;;28.90;86.00;;;;;;5032720;28;20187;-68
2023/06/26 08:12:05;;;;;;;8.23;7.57;;;28.40;86.40;;;;;;5032560;28;20417;-68
2023/06/26 08:14:31;;;;;;;8.57;7.73;;;28.50;86.60;;;;;;5037311;28;20229;-68
2023/06/26 08:16:57;;;;;;;7.37;6.67;;;28.50;86.70;;;;;;5036844;28;20410;-68
2023/06/26 08:19:23;;;;;;;8.30;7.03;;;28.70;85.20;;;;;;5052859;28;20660;-68
2023/06/26 08:21:48;;;;;;;8.80;7.90;;;29.00;83.90;;;;;;5056210;28;20202;-68
2023/06/26 08:24:18;;;;;;;8.00;6.80;;;29.10;83.00;;;;;;5056112;28;20227;-69
2023/06/26 08:26:46;;;;;;;8.80;7.93;;;28.90;84.00;;;;;;5056280;28;20162;-68
2023/06/26 08:29:11;;;;;;;8.40;7.60;;;28.90;83.60;;;;;;5056306;28;20838;-69
2023/06/26 08:31:38;;;;;;;8.07;7.37;;;29.00;83.70;;;;;;5056528;28;20522;-69
2023/06/26 08:34:04;;;;;;;8.87;6.80;;;29.10;82.70;;;;;;5056309;28;20158;-69
2023/06/26 08:36:30;;;;;;;8.40;7.60;;;29.00;83.70;;;;;;5056125;28;20416;-69
2023/06/26 08:38:56;;;;;;;8.67;7.87;;;29.10;83.30;;;;;;5056118;28;20409;-69
2023/06/26 08:41:22;;;;;;;7.07;6.47;;;29.20;82.70;;;;;;5056629;28;20894;-69
2023/06/26 08:43:50;;;;;;;8.53;7.70;;;29.40;82.20;;;;;;5056655;28;20652;-69
2023/06/26 08:46:15;;;;;;;8.00;7.20;;;29.60;81.60;;;;;;5056690;28;20170;-69
2023/06/26 08:48:45;;;;;;;7.30;6.13;;;29.50;79.70;;;;;;5056981;28;20421;-69
2023/06/26 08:51:14;;;;;;;7.00;6.07;;;29.60;80.00;;;;;;5059761;28;20208;-69
2023/06/26 08:53:46;;;;;;;6.10;5.60;;;29.80;79.50;;;;;;5076058;28;20392;-69
2023/06/26 08:56:16;;;;;;;6.63;6.03;;;29.70;78.10;;;;;;5076464;28;20384;-69
2023/06/26 08:58:42;;;;;;;6.57;5.97;;;29.40;78.40;;;;;;5076164;28;20393;-69
2023/06/26 09:01:08;;;;;;;6.60;6.00;;;30.00;78.20;;;;;;5076156;28;20419;-69
2023/06/26 09:03:35;;;;;;;7.17;5.67;;;30.10;77.70;;;;;;5076216;28;20500;-68
2023/06/26 09:06:00;;;;;;;7.77;6.20;;;30.10;77.70;;;;;;5075600;28;20411;-68
2023/06/26 09:08:26;;;;;;;5.93;5.33;;;29.90;77.20;;;;;;5075514;28;20396;-69
2023/06/26 09:10:52;;;;;;;7.13;5.77;;;29.90;76.70;;;;;;5075759;28;20296;-69
2023/06/26 09:13:18;;;;;;;6.50;5.90;;;30.20;76.10;;;;;;5075937;28;20304;-69
2023/06/26 09:15:45;;;;;;;6.40;5.90;;;30.30;75.50;;;;;;5075678;28;20243;-69
2023/06/26 09:18:11;;;;;;;6.80;6.20;;;30.30;75.50;;;;;;5075928;28;20491;-69
2023/06/26 09:20:37;;;;;;;6.40;5.87;;;30.40;75.00;;;;;;5075791;28;20431;-69
2023/06/26 09:23:04;;;;;;;6.43;5.83;;;30.20;75.20;;;;;;5075102;28;20448;-69
2023/06/26 09:25:29;;;;;;;6.43;5.83;;;30.20;74.40;;;;;;5075036;28;20175;-69
2023/06/26 09:27:56;;;;;;;5.80;5.30;;;30.30;74.20;;;;;;5076321;28;20408;-69
2023/06/26 09:30:22;;;;;;;6.50;5.97;;;30.30;74.10;;;;;;5076065;28;20186;-68
2023/06/26 09:32:49;;;;;;;7.77;6.20;;;30.50;73.30;;;;;;5076122;28;20510;-69
2023/06/26 09:35:15;;;;;;;7.23;5.10;;;30.60;73.60;;;;;;5076387;28;20216;-69
2023/06/26 09:37:41;;;;;;;7.83;5.40;;;30.70;73.00;;;;;;5075600;28;20427;-69
2023/06/26 09:40:07;;;;;;;6.40;5.90;;;30.90;72.60;;;;;;5075049;28;20950;-69
2023/06/26 09:42:33;;;;;;;6.47;5.77;;;31.00;72.50;;;;;;5053066;28;20567;-69
2023/06/26 09:45:00;;;;;;;7.33;6.67;;;31.20;71.20;;;;;;5035680;28;20413;-69
2023/06/26 09:47:25;;;;;;;6.37;5.87;;;31.30;70.70;;;;;;5034860;28;20305;-69
2023/06/26 09:49:52;;;;;;;5.57;5.07;;;31.50;70.30;;;;;;5035199;28;20488;-68
2023/06/26 09:52:19;;;;;;;6.40;5.73;;;31.40;71.00;;;;;;5054828;28;20267;-69
2023/06/26 09:54:45;;;;;;;6.97;6.20;;;31.50;69.40;;;;;;5074482;28;20404;-70
2023/06/26 09:57:16;;;;;;;8.97;6.07;;;31.00;69.50;;;;;;5074977;28;20408;-70
2023/06/26 09:59:45;;;;;;;7.07;6.37;;;31.00;70.60;;;;;;5074578;28;20452;-70
2023/06/26 10:02:11;;;;;;;6.50;5.90;;;31.20;70.60;;;;;;5074649;28;20995;-70
2023/06/26 10:04:37;;;;;;;5.77;5.37;;;31.30;70.30;;;;;;5074774;28;20534;-69
2023/06/26 10:07:06;;;;;;;7.57;6.87;;;31.30;70.30;;;;;;5074466;28;20401;-70
2023/06/26 10:09:32;;;;;;;6.70;6.13;;;31.30;70.20;;;;;;5074302;28;20420;-70
2023/06/26 10:12:06;;;;;;;6.80;6.20;;;31.30;71.10;;;;;;5074494;28;20847;-70
2023/06/26 10:14:35;;;;;;;6.97;6.37;;;31.20;70.80;;;;;;5074740;28;20416;-69
2023/06/26 10:17:06;;;;;;;6.50;6.00;;;30.90;71.70;;;;;;5056718;28;20413;-69
2023/06/26 10:19:33;;;;;;;7.57;6.90;;;31.00;72.50;;;;;;5054427;28;20464;-69
2023/06/26 10:22:01;;;;;;;7.03;6.10;;;31.00;72.10;;;;;;5033238;28;20481;-70
2023/06/26 10:24:31;;;;;;;7.40;6.70;;;31.10;72.00;;;;;;5053886;28;20900;-70
2023/06/26 10:27:03;;;;;;;7.40;6.67;;;31.10;72.30;;;;;;5054505;28;20405;-70
2023/06/26 10:29:30;;;;;;;7.47;6.77;;;31.20;72.80;;;;;;5053997;28;20421;-69
2023/06/26 10:31:58;;;;;;;7.23;6.53;;;31.00;72.80;;;;;;5054286;28;20409;-70
2023/06/26 10:34:25;;;;;;;7.60;6.90;;;31.10;73.40;;;;;;5053888;28;20417;-70
2023/06/26 10:37:01;;;;;;;7.27;6.67;;;31.10;74.00;;;;;;5053302;28;20439;-70
2023/06/26 10:39:32;;;;;;;8.30;7.50;;;30.90;74.40;;;;;;5035515;28;20433;-70
2023/06/26 10:42:11;;;;;;;9.23;8.43;;;30.70;74.60;;;;;;5053214;28;20496;-69
2023/06/26 10:44:44;;;;;;;9.40;8.07;;;30.20;76.40;;;;;;5053484;28;20844;-70
2023/06/26 10:47:10;;;;;;;9.67;8.43;;;30.20;76.20;;;;;;5053467;28;20499;-70
2023/06/26 10:49:39;;;;;;;7.40;6.70;;;30.10;76.30;;;;;;5053544;28;20822;-69
2023/06/26 10:52:05;;;;;;;9.10;7.93;;;30.00;75.00;;;;;;5060049;28;20416;-69
2023/06/26 10:54:32;;;;;;;12.50;8.47;;;29.80;75.10;;;;;;5073395;28;20490;-69
2023/06/26 10:56:58;;;;;;;9.00;8.20;;;29.90;75.30;;;;;;5056088;28;20427;-69
2023/06/26 10:59:31;;;;;;;8.27;7.30;;;29.90;75.50;;;;;;5070543;28;20526;-68
2023/06/26 11:01:59;;;;;;;7.83;7.03;;;30.50;75.50;;;;;;5070134;28;20851;-70
2023/06/26 11:04:41;;;;;;;8.57;7.70;;;30.60;74.20;;;;;;5070033;28;20393;-70
2023/06/26 11:07:24;;;;;;;7.57;6.90;;;30.80;74.40;;;;;;5069485;28;20397;-70
2023/06/26 11:10:00;;;;;;;8.97;8.07;;;31.10;72.10;;;;;;5070501;28;20436;-70
2023/06/26 11:12:37;;;;;;;7.80;7.10;;;31.20;73.50;;;;;;5069787;28;20433;-70
2023/06/26 11:15:07;;;;;;;8.03;7.10;;;31.40;72.60;;;;;;5069743;28;20432;-70
2023/06/26 11:17:34;;;;;;;7.67;6.97;;;31.30;71.80;;;;;;5070285;28;20440;-70
2023/06/26 11:20:00;;;;;;;10.10;7.93;;;31.30;72.10;;;;;;5069678;28;20420;-70
2023/06/26 11:22:26;;;;;;;8.10;7.23;;;31.00;72.40;;;;;;5058411;28;20781;-70
2023/06/26 11:24:54;;;;;;;7.70;7.03;;;31.10;72.50;;;;;;5049706;28;20401;-70
2023/06/26 11:27:23;;;;;;;7.87;7.27;;;30.90;72.60;;;;;;5049905;28;20417;-70
2023/06/26 11:29:52;;;;;;;8.33;7.50;;;30.80;72.90;;;;;;5049943;28;20785;-70
2023/06/26 11:32:17;;;;;;;8.70;8.00;;;31.00;73.00;;;;;;5049629;28;20413;-70
2023/06/26 11:34:43;;;;;;;8.20;7.50;;;31.40;71.70;;;;;;5049246;28;20405;-70
2023/06/26 11:37:09;;;;;;;8.70;8.00;;;32.30;69.30;;;;;;5049057;28;20166;-68
2023/06/26 11:39:36;;;;;;;8.93;7.87;;;33.10;68.00;;;;;;5069087;28;20839;-70
2023/06/26 11:42:04;;;;;;;7.60;6.90;;;33.50;67.30;;;;;;5069305;28;20216;-68
2023/06/26 11:44:31;;;;;;;8.07;7.27;;;33.80;66.70;;;;;;5069570;28;20400;-70
2023/06/26 11:46:57;;;;;;;8.20;7.50;;;34.10;66.00;;;;;;5069033;28;20751;-70
2023/06/26 11:49:25;;;;;;;7.40;6.73;;;34.40;65.20;;;;;;5070386;28;20428;-70
2023/06/26 11:51:51;;;;;;;8.57;6.77;;;34.10;65.00;;;;;;5063081;28;20190;-70
2023/06/26 11:54:24;;;;;;;7.37;6.53;;;34.50;64.70;;;;;;5049185;28;20398;-69
2023/06/26 11:56:57;;;;;;;7.90;7.03;;;34.30;64.60;;;;;;5048334;28;20762;-69
2023/06/26 11:59:23;;;;;;;7.40;6.80;;;33.60;65.20;;;;;;5049122;28;20471;-69
2023/06/26 12:01:51;;;;;;;8.27;7.47;;;33.60;66.30;;;;;;5049379;28;20401;-69
2023/06/26 12:04:19;;;;;;;7.40;6.80;;;33.70;65.80;;;;;;5049287;28;20221;-70
2023/06/26 12:06:57;;;;;;;7.83;7.13;;;32.90;67.50;;;;;;5049305;28;20409;-70
2023/06/26 12:09:23;;;;;;;8.40;7.57;;;32.30;69.60;;;;;;5043795;28;20513;-69
2023/06/26 12:11:53;;;;;;;7.53;6.93;;;31.70;72.50;;;;;;5035915;28;20402;-69
2023/06/26 12:14:21;;;;;;;12.10;7.03;;;31.70;74.40;;;;;;5035941;28;20457;-68
2023/06/26 12:16:47;;;;;;;7.30;6.60;;;32.80;73.40;;;;;;5035886;28;20406;-69
2023/06/26 12:19:13;;;;;;;11.10;7.47;;;33.50;72.10;;;;;;5035636;28;20465;-69
2023/06/26 12:21:40;;;;;;;7.80;7.00;;;34.10;71.00;;;;;;5035748;28;20190;-69
2023/06/26 12:24:12;;;;;;;7.10;6.43;;;34.00;70.00;;;;;;5048509;28;20915;-69
2023/06/26 12:26:38;;;;;;;6.53;6.03;;;34.40;69.70;;;;;;5044421;28;20808;-69
2023/06/26 12:29:05;;;;;;;7.20;6.50;;;34.20;69.80;;;;;;5035587;28;20468;-69
2023/06/26 12:31:31;;;;;;;8.50;7.60;;;34.50;68.30;;;;;;5035825;28;20209;-69
2023/06/26 12:33:57;;;;;;;6.77;6.17;;;34.70;68.60;;;;;;5035882;28;20434;-69
2023/06/26 12:36:23;;;;;;;7.33;5.90;;;34.70;68.00;;;;;;5036243;28;20899;-69
2023/06/26 12:38:49;;;;;;;7.93;7.10;;;34.50;67.50;;;;;;5036832;28;20230;-69
2023/06/26 12:41:16;;;;;;;7.50;6.80;;;34.80;67.10;;;;;;5037056;28;20171;-69
2023/06/26 12:43:42;;;;;;;8.07;6.80;;;35.60;65.60;;;;;;5036495;28;20406;-69